Time;durP1;ratioP1;P1;durP2;ratioP2;P2;SDS_P1;SDS_P2;PMS_P1;PMS_P2;Temp;Humidity;BMP_temperature;BMP_pressure;BME280_temperature;BME280_humidity;BME280_pressure;Samples;Min_cycle;Max_cycle;Signal;HPM_P1;HPM_P2
2023/07/02 00:01:38;;;;;;;4.73;3.60;;;;;;;19.69;100.00;97614.56;4140324;28;20643;-82
2023/07/02 00:03:41;;;;;;;4.50;3.03;;;;;;;19.70;100.00;97612.75;4154315;28;20645;-82
2023/07/02 00:05:44;;;;;;;3.97;3.30;;;;;;;19.69;100.00;97609.28;4142346;28;20683;-82
2023/07/02 00:07:48;;;;;;;5.33;3.47;;;;;;;19.70;100.00;97610.94;4138817;28;20654;-81
2023/07/02 00:09:51;;;;;;;4.03;3.30;;;;;;;19.69;100.00;97611.91;4147812;28;21049;-82
2023/07/02 00:11:55;;;;;;;5.20;3.80;;;;;;;19.67;100.00;97616.56;4137847;28;21184;-82
2023/07/02 00:13:58;;;;;;;4.80;3.30;;;;;;;19.67;100.00;97613.13;4126111;28;21050;-82
2023/07/02 00:16:03;;;;;;;4.83;3.70;;;;;;;19.66;100.00;97611.44;4132550;28;21280;-82
2023/07/02 00:18:07;;;;;;;3.90;3.20;;;;;;;19.65;100.00;97618.56;4138403;28;20622;-82
2023/07/02 00:20:15;;;;;;;5.67;3.30;;;;;;;19.65;100.00;97617.72;4132431;28;21273;-82
2023/07/02 00:22:18;;;;;;;4.60;3.73;;;;;;;19.62;100.00;97613.63;4156593;28;20759;-82
2023/07/02 00:24:22;;;;;;;4.87;3.77;;;;;;;19.62;100.00;97613.63;4136922;28;21729;-82
2023/07/02 00:26:25;;;;;;;3.80;3.10;;;;;;;19.60;100.00;97607.66;4151323;28;20634;-82
2023/07/02 00:28:28;;;;;;;4.40;3.40;;;;;;;19.57;100.00;97613.28;4131984;28;20660;-82
2023/07/02 00:30:31;;;;;;;4.60;3.60;;;;;;;19.55;100.00;97615.28;4132855;28;20643;-82
2023/07/02 00:32:35;;;;;;;6.50;3.60;;;;;;;19.53;100.00;97619.09;4149376;28;21192;-82
2023/07/02 00:34:40;;;;;;;5.70;4.00;;;;;;;19.51;99.94;97623.75;4134804;28;20773;-82
2023/07/02 00:36:43;;;;;;;5.50;3.40;;;;;;;19.49;100.00;97623.91;4152190;28;20627;-82
2023/07/02 00:38:47;;;;;;;4.10;3.60;;;;;;;19.47;100.00;97619.81;4154746;28;20630;-82
2023/07/02 00:40:50;;;;;;;5.13;3.17;;;;;;;19.43;100.00;97619.31;4154044;28;20657;-82
2023/07/02 00:42:53;;;;;;;3.67;2.97;;;;;;;19.41;100.00;97621.31;4139424;28;20635;-82
2023/07/02 00:44:56;;;;;;;5.60;3.90;;;;;;;19.39;100.00;97623.31;4155776;28;20687;-82
2023/07/02 00:47:00;;;;;;;4.27;3.30;;;;;;;19.37;100.00;97621.81;4158185;28;20625;-82
2023/07/02 00:49:05;;;;;;;4.37;3.73;;;;;;;19.34;100.00;97619.50;4148948;28;20653;-82
2023/07/02 00:51:10;;;;;;;4.60;3.50;;;;;;;19.32;100.00;97615.38;4153347;28;20630;-82
2023/07/02 00:53:14;;;;;;;6.40;4.80;;;;;;;19.31;100.00;97616.38;4141474;28;20666;-82
2023/07/02 00:55:17;;;;;;;4.27;3.30;;;;;;;19.28;100.00;97619.38;4139001;28;20714;-82
2023/07/02 00:57:20;;;;;;;4.43;3.10;;;;;;;19.23;100.00;97624.31;4148589;28;21161;-82
2023/07/02 00:59:23;;;;;;;6.77;3.33;;;;;;;19.21;100.00;97628.97;4141317;28;20729;-82
2023/07/02 01:01:29;;;;;;;4.60;3.53;;;;;;;19.21;100.00;97631.59;4161915;28;20661;-82
2023/07/02 01:03:37;;;;;;;4.97;3.47;;;;;;;19.20;100.00;97624.66;4149634;28;20720;-82
2023/07/02 01:05:41;;;;;;;4.77;3.50;;;;;;;19.20;100.00;97635.25;4151184;28;20662;-82
2023/07/02 01:07:46;;;;;;;4.87;3.80;;;;;;;19.20;100.00;97632.59;4156168;28;20658;-82
2023/07/02 01:09:50;;;;;;;5.13;3.43;;;;;;;19.19;100.00;97629.13;4142396;28;20631;-82
2023/07/02 01:11:56;;;;;;;4.57;3.40;;;;;;;19.17;100.00;97623.19;4140038;28;20643;-82
2023/07/02 01:14:03;;;;;;;4.90;3.77;;;;;;;19.14;100.00;97627.97;4154474;28;21331;-82
2023/07/02 01:16:07;;;;;;;4.60;3.70;;;;;;;19.16;100.00;97624.19;4122685;28;20727;-78
2023/07/02 01:18:11;;;;;;;4.40;3.40;;;;;;;19.15;100.00;97621.72;4147454;28;21028;-78
2023/07/02 01:20:16;;;;;;;4.50;3.60;;;;;;;19.08;100.00;97618.91;4157668;28;20733;-78
2023/07/02 01:22:21;;;;;;;4.57;3.57;;;;;;;19.05;100.00;97618.44;4153015;28;20613;-78
2023/07/02 01:24:24;;;;;;;4.03;3.30;;;;;;;18.97;100.00;97616.59;4154165;28;20635;-78
2023/07/02 01:26:29;;;;;;;4.70;3.70;;;;;;;18.93;100.00;97619.75;4155014;28;20749;-78
2023/07/02 01:28:36;;;;;;;4.80;3.60;;;;;;;18.90;100.00;97625.38;4136766;28;20657;-78
2023/07/02 01:30:40;;;;;;;4.17;3.60;;;;;;;18.89;100.00;97621.88;4153974;28;20633;-78
2023/07/02 01:32:43;;;;;;;4.90;3.77;;;;;;;18.89;100.00;97629.00;4141304;28;20665;-78
2023/07/02 01:34:48;;;;;;;4.30;3.63;;;;;;;18.90;100.00;97612.16;4152352;28;20711;-78
2023/07/02 01:36:54;;;;;;;4.50;3.80;;;;;;;18.90;100.00;97609.50;4151025;28;21228;-78
2023/07/02 01:38:57;;;;;;;5.43;3.80;;;;;;;18.92;100.00;97621.53;4138415;28;21191;-78
2023/07/02 01:41:01;;;;;;;5.03;3.40;;;;;;;18.93;100.00;97622.38;4151547;28;20630;-78
2023/07/02 01:43:05;;;;;;;4.23;3.30;;;;;;;18.93;100.00;97628.50;4157957;28;20636;-78
2023/07/02 01:45:09;;;;;;;3.90;3.40;;;;;;;18.92;100.00;97624.19;4153299;28;20638;-78
2023/07/02 01:47:13;;;;;;;5.80;4.23;;;;;;;18.90;100.00;97620.09;4155049;28;20657;-78
2023/07/02 01:49:17;;;;;;;5.43;3.80;;;;;;;18.90;100.00;97628.00;4167005;28;20698;-78
2023/07/02 01:51:21;;;;;;;6.60;3.67;;;;;;;18.88;100.00;97634.44;4135854;28;20641;-78
2023/07/02 01:53:26;;;;;;;7.43;4.17;;;;;;;18.83;100.00;97637.59;4152628;28;20639;-78
2023/07/02 01:55:30;;;;;;;4.60;3.57;;;;;;;18.83;100.00;97631.47;4138631;28;20650;-78
2023/07/02 01:57:33;;;;;;;4.07;3.47;;;;;;;18.82;100.00;97635.09;4150487;28;20687;-79
2023/07/02 01:59:37;;;;;;;4.40;3.40;;;;;;;18.83;100.00;97637.59;4157534;28;20632;-78
2023/07/02 02:01:41;;;;;;;5.00;4.23;;;;;;;18.82;100.00;97637.75;4151944;28;20644;-78
2023/07/02 02:03:44;;;;;;;4.50;3.70;;;;;;;18.83;100.00;97645.50;4150508;28;20632;-78
2023/07/02 02:05:48;;;;;;;5.47;3.80;;;;;;;18.81;100.00;97639.56;4151237;28;20634;-78
2023/07/02 02:07:51;;;;;;;4.77;3.83;;;;;;;18.84;100.00;97646.31;4153810;28;21001;-78
2023/07/02 02:09:56;;;;;;;6.63;4.13;;;;;;;18.81;100.00;97636.09;4155875;28;21271;-78
2023/07/02 02:12:00;;;;;;;4.80;3.70;;;;;;;18.79;100.00;97630.97;4146852;28;20697;-78
2023/07/02 02:14:03;;;;;;;4.30;3.67;;;;;;;18.76;100.00;97619.91;4132335;28;20641;-78
2023/07/02 02:16:07;;;;;;;4.20;3.07;;;;;;;18.71;100.00;97630.97;4148584;28;20632;-78
2023/07/02 02:18:10;;;;;;;6.30;3.70;;;;;;;18.65;100.00;97628.19;4151006;28;20688;-78
2023/07/02 02:20:13;;;;;;;6.53;3.93;;;;;;;18.61;100.00;97618.94;4151289;28;21096;-78
2023/07/02 02:22:18;;;;;;;5.67;4.20;;;;;;;18.58;100.00;97617.47;4151280;28;20640;-78
2023/07/02 02:24:21;;;;;;;4.70;3.73;;;;;;;18.56;100.00;97627.34;4135155;28;20649;-78
2023/07/02 02:26:26;;;;;;;4.67;3.87;;;;;;;18.55;100.00;97641.56;4150547;28;20743;-78
2023/07/02 02:28:30;;;;;;;4.90;3.70;;;;;;;18.53;100.00;97640.88;4150645;28;20639;-78
2023/07/02 02:30:33;;;;;;;4.40;3.30;;;;;;;18.52;100.00;97646.34;4130420;28;20641;-78
2023/07/02 02:32:38;;;;;;;4.90;3.63;;;;;;;18.52;100.00;97649.81;4152068;28;20634;-78
2023/07/02 02:34:44;;;;;;;6.27;3.73;;;;;;;18.54;100.00;97647.03;4157838;28;21053;-78
2023/07/02 02:36:49;;;;;;;5.43;4.03;;;;;;;18.56;100.00;97652.94;4156557;28;21268;-78
2023/07/02 02:38:52;;;;;;;5.00;4.07;;;;;;;18.57;100.00;97652.78;4163008;28;20628;-78
2023/07/02 02:40:56;;;;;;;4.67;3.50;;;;;;;18.58;100.00;97649.16;4154848;28;20687;-78
2023/07/02 02:43:02;;;;;;;4.53;3.60;;;;;;;18.59;100.00;97649.97;4139303;28;20622;-78
2023/07/02 02:45:06;;;;;;;6.47;4.07;;;;;;;18.59;100.00;97649.97;4159589;28;21031;-78
2023/07/02 02:47:11;;;;;;;6.03;4.37;;;;;;;18.60;100.00;97657.75;4149551;28;21107;-78
2023/07/02 02:49:15;;;;;;;5.07;4.27;;;;;;;18.59;100.00;97656.09;4140312;28;20768;-78
2023/07/02 02:51:18;;;;;;;5.60;3.90;;;;;;;18.61;100.00;97655.91;4141068;28;20634;-78
2023/07/02 02:53:22;;;;;;;4.90;4.00;;;;;;;18.61;100.00;97651.47;4154317;28;20632;-78
2023/07/02 02:55:26;;;;;;;7.63;4.27;;;;;;;18.63;100.00;97649.50;4130698;28;20639;-78
2023/07/02 02:57:29;;;;;;;4.47;3.60;;;;;;;18.63;100.00;97651.31;4147679;28;21216;-78
2023/07/02 02:59:34;;;;;;;4.70;3.93;;;;;;;18.60;100.00;97652.47;4152404;28;20719;-78
2023/07/02 03:01:39;;;;;;;6.30;4.13;;;;;;;18.59;100.00;97648.16;4135579;28;20662;-78
2023/07/02 03:03:44;;;;;;;4.87;3.97;;;;;;;18.57;100.00;97650.16;4153328;28;20645;-78
2023/07/02 03:05:49;;;;;;;6.17;4.27;;;;;;;18.57;100.00;97646.69;4151090;28;20644;-78
2023/07/02 03:07:52;;;;;;;5.03;3.87;;;;;;;18.57;100.00;97652.78;4150020;28;20651;-78
2023/07/02 03:09:55;;;;;;;4.80;3.80;;;;;;;18.58;100.00;97657.09;4141805;28;20658;-78
2023/07/02 03:12:00;;;;;;;5.20;4.30;;;;;;;18.57;100.00;97660.72;4154966;28;20667;-78
2023/07/02 03:14:04;;;;;;;5.60;4.07;;;;;;;18.57;100.00;97667.81;4137241;28;20638;-78
2023/07/02 03:16:09;;;;;;;4.50;3.60;;;;;;;18.58;100.00;97664.16;4148873;28;20646;-78
2023/07/02 03:18:12;;;;;;;4.23;3.80;;;;;;;18.59;100.00;97668.47;4139718;28;20644;-78
2023/07/02 03:20:19;;;;;;;5.70;4.50;;;;;;;18.59;100.00;97677.22;4152298;28;21230;-78
2023/07/02 03:22:22;;;;;;;5.50;4.17;;;;;;;18.59;100.00;97686.97;4152104;28;21170;-78
2023/07/02 03:24:26;;;;;;;5.10;3.77;;;;;;;18.55;100.00;97683.84;4148192;28;20687;-78
2023/07/02 03:26:30;;;;;;;5.93;4.13;;;;;;;18.50;100.00;97683.47;4150424;28;20847;-78
2023/07/02 03:28:34;;;;;;;5.10;3.57;;;;;;;18.47;100.00;97691.72;4148854;28;20632;-78
2023/07/02 03:30:38;;;;;;;5.30;3.87;;;;;;;18.43;100.00;97687.78;4140013;28;20668;-78
2023/07/02 03:32:42;;;;;;;7.07;4.03;;;;;;;18.40;100.00;97697.00;4138800;28;21323;-78
2023/07/02 03:34:45;;;;;;;6.53;3.80;;;;;;;18.38;100.00;97697.16;4149467;28;20642;-78
2023/07/02 03:36:49;;;;;;;4.17;3.50;;;;;;;18.37;100.00;97694.69;4136492;28;20641;-78
2023/07/02 03:38:52;;;;;;;6.00;3.60;;;;;;;18.35;100.00;97701.97;4146871;28;20630;-78
2023/07/02 03:40:55;;;;;;;7.20;3.63;;;;;;;18.32;100.00;97703.09;4146383;28;20709;-78
2023/07/02 03:42:58;;;;;;;4.87;3.67;;;;;;;18.32;100.00;97712.84;4157143;28;20727;-78
2023/07/02 03:45:03;;;;;;;6.03;3.70;;;;;;;18.32;100.00;97705.75;4167648;28;20636;-78
2023/07/02 03:47:08;;;;;;;5.40;3.87;;;;;;;18.33;100.00;97711.84;4157993;28;20729;-78
2023/07/02 03:49:13;;;;;;;6.43;3.80;;;;;;;18.32;100.00;97711.03;4155718;28;20623;-78
2023/07/02 03:51:16;;;;;;;4.43;3.70;;;;;;;18.30;100.00;97710.38;4153344;28;20648;-78
2023/07/02 03:53:19;;;;;;;8.80;4.67;;;;;;;18.31;100.00;97719.94;4154193;28;20632;-78
2023/07/02 03:55:22;;;;;;;6.13;4.43;;;;;;;18.32;100.00;97720.75;4139794;28;20685;-78
2023/07/02 03:57:26;;;;;;;5.43;3.87;;;;;;;18.30;100.00;97722.75;4146812;28;20957;-79
2023/07/02 03:59:29;;;;;;;8.43;4.57;;;;;;;18.26;100.00;97727.50;4141080;28;20649;-82
2023/07/02 04:01:32;;;;;;;8.83;5.10;;;;;;;18.24;99.87;97733.97;4170655;28;20647;-82
2023/07/02 04:03:36;;;;;;;6.20;4.10;;;;;;;18.23;99.71;97727.00;4168250;28;20744;-82
2023/07/02 04:05:41;;;;;;;6.47;4.07;;;;;;;18.21;99.35;97729.00;4154659;28;20644;-82
2023/07/02 04:07:44;;;;;;;7.77;5.20;;;;;;;18.21;99.66;97731.63;4153638;28;20635;-82
2023/07/02 04:09:47;;;;;;;6.83;4.43;;;;;;;18.21;99.18;97736.91;4158564;28;20657;-82
2023/07/02 04:11:50;;;;;;;6.73;5.03;;;;;;;18.20;99.67;97737.88;4158247;28;20638;-82
2023/07/02 04:13:54;;;;;;;7.33;5.03;;;;;;;18.20;100.00;97745.81;4152454;28;20648;-82
2023/07/02 04:15:57;;;;;;;9.20;5.27;;;;;;;18.21;100.00;97750.13;4141453;28;20632;-82
2023/07/02 04:18:00;;;;;;;7.80;4.53;;;;;;;18.22;100.00;97763.16;4157459;28;20651;-82
2023/07/02 04:20:04;;;;;;;7.00;4.13;;;;;;;18.24;100.00;97755.06;4152079;28;20630;-82
2023/07/02 04:22:08;;;;;;;6.50;4.23;;;;;;;18.25;100.00;97756.72;4151817;28;20637;-82
2023/07/02 04:24:12;;;;;;;5.80;4.53;;;;;;;18.25;99.83;97751.44;4139364;28;20722;-82
2023/07/02 04:26:16;;;;;;;5.30;4.10;;;;;;;18.28;99.71;97751.09;4157012;28;20631;-82
2023/07/02 04:28:39;;;;;;;7.03;4.87;;;;;;;18.24;99.62;97741.88;4151640;28;21194;-82
2023/07/02 04:30:42;;;;;;;7.13;4.60;;;;;;;18.21;99.15;97744.84;4152351;28;20647;-82
2023/07/02 04:32:46;;;;;;;8.80;5.10;;;;;;;18.22;98.70;97751.75;4166894;28;20654;-82
2023/07/02 04:34:50;;;;;;;8.20;5.43;;;;;;;18.17;98.67;97746.94;4156114;28;20647;-82
2023/07/02 04:36:53;;;;;;;9.60;6.20;;;;;;;18.18;98.81;97756.53;4143499;28;20614;-82
2023/07/02 04:38:58;;;;;;;10.00;5.40;;;;;;;18.20;98.53;97753.72;4152975;28;20643;-82
2023/07/02 04:41:04;;;;;;;6.90;4.67;;;;;;;18.20;98.66;97756.38;4135240;28;21221;-82
2023/07/02 04:43:09;;;;;;;7.80;5.23;;;;;;;18.21;98.25;97750.13;4150064;28;20632;-82
2023/07/02 04:45:13;;;;;;;8.47;5.43;;;;;;;18.20;98.32;97749.28;4144509;28;20651;-82
2023/07/02 04:47:19;;;;;;;7.97;5.47;;;;;;;18.22;98.13;97749.09;4152486;28;20620;-82
2023/07/02 04:49:22;;;;;;;10.20;5.37;;;;;;;18.15;98.23;97750.75;4155588;28;20635;-82
2023/07/02 04:51:26;;;;;;;7.00;4.77;;;;;;;18.10;98.38;97742.44;4160533;28;20679;-82
2023/07/02 04:53:29;;;;;;;7.70;5.50;;;;;;;18.10;98.28;97750.34;4150875;28;20641;-82
2023/07/02 04:55:33;;;;;;;6.50;4.80;;;;;;;18.01;98.63;97764.50;4151725;28;20637;-82
2023/07/02 04:57:37;;;;;;;6.27;4.60;;;;;;;17.95;98.93;97765.97;4138336;28;20646;-82
2023/07/02 04:59:40;;;;;;;7.17;5.10;;;;;;;17.94;99.05;97758.22;4154648;28;20753;-82
2023/07/02 05:01:44;;;;;;;8.27;5.20;;;;;;;18.00;99.29;97760.22;4138080;28;20621;-82
2023/07/02 05:03:47;;;;;;;11.20;5.97;;;;;;;18.09;99.75;97767.19;4157003;28;20637;-82
2023/07/02 05:05:51;;;;;;;7.90;5.43;;;;;;;18.21;99.30;97771.25;4140411;28;20729;-82
2023/07/02 05:07:55;;;;;;;7.70;5.07;;;;;;;18.33;99.21;97776.06;4151950;28;20647;-82
2023/07/02 05:09:58;;;;;;;6.97;5.30;;;;;;;18.44;97.91;97783.69;4167155;28;20996;-82
2023/07/02 05:12:03;;;;;;;5.90;4.60;;;;;;;18.52;98.42;97786.34;4149922;28;20731;-82
2023/07/02 05:14:06;;;;;;;9.97;5.37;;;;;;;18.56;98.55;97787.69;4155820;28;20728;-82
2023/07/02 05:16:10;;;;;;;9.13;5.07;;;;;;;18.57;97.14;97795.44;4155926;28;20673;-82
2023/07/02 05:18:13;;;;;;;6.93;4.83;;;;;;;18.61;97.40;97796.78;4154779;28;20638;-82
2023/07/02 05:20:17;;;;;;;8.00;6.00;;;;;;;18.68;96.91;97802.25;4144171;28;20644;-81
2023/07/02 05:22:20;;;;;;;8.03;4.83;;;;;;;18.72;96.47;97799.13;4137622;28;20644;-81
2023/07/02 05:24:23;;;;;;;6.40;4.90;;;;;;;18.80;96.68;97793.84;4153850;28;20685;-82
2023/07/02 05:26:27;;;;;;;8.60;4.90;;;;;;;18.81;95.05;97797.31;4148750;28;21235;-82
2023/07/02 05:28:31;;;;;;;7.97;4.90;;;;;;;18.83;96.40;97798.81;4151419;28;20638;-82
2023/07/02 05:30:34;;;;;;;7.93;4.80;;;;;;;18.86;96.16;97800.31;4151321;28;20672;-82
2023/07/02 05:32:39;;;;;;;7.83;5.27;;;;;;;18.90;95.90;97805.13;4155829;28;20672;-82
2023/07/02 05:34:42;;;;;;;9.70;4.90;;;;;;;18.99;95.93;97814.72;4153877;28;20725;-82
2023/07/02 05:36:46;;;;;;;10.93;4.80;;;;;;;19.15;95.63;97802.34;4151243;28;20632;-82
2023/07/02 05:38:50;;;;;;;8.73;4.40;;;;;;;19.23;95.33;97804.16;4141579;28;21181;-81
2023/07/02 05:40:53;;;;;;;7.33;4.80;;;;;;;19.28;96.30;97807.16;4139520;28;20706;-82
2023/07/02 05:42:56;;;;;;;7.60;4.30;;;;;;;19.36;93.91;97815.09;4147127;28;20725;-81
2023/07/02 05:45:01;;;;;;;7.90;4.90;;;;;;;19.53;92.76;97813.09;4152797;28;20734;-82
2023/07/02 05:47:04;;;;;;;10.13;4.90;;;;;;;19.87;93.91;97816.41;4149120;28;20632;-82
2023/07/02 05:49:08;;;;;;;5.83;4.10;;;;;;;20.25;90.86;97826.22;4152978;28;21105;-82
2023/07/02 05:51:11;;;;;;;7.43;4.20;;;;;;;20.58;90.37;97821.47;4154193;28;20660;-82
2023/07/02 05:53:14;;;;;;;5.57;4.10;;;;;;;20.94;89.35;97827.91;4137358;28;20803;-82
2023/07/02 05:55:18;;;;;;;6.33;4.33;;;;;;;21.19;86.68;97832.06;4152780;28;20660;-82
2023/07/02 05:57:21;;;;;;;8.07;4.50;;;;;;;21.40;86.66;97833.06;4149550;28;20643;-82
2023/07/02 05:59:24;;;;;;;6.43;4.13;;;;;;;21.28;86.09;97829.19;4150702;28;20640;-82
2023/07/02 06:01:29;;;;;;;3.87;3.37;;;;;;;21.00;86.53;97833.38;4140904;28;21272;-81
2023/07/02 06:03:32;;;;;;;7.73;3.80;;;;;;;20.74;86.08;97828.53;4152206;28;20808;-82
2023/07/02 06:05:35;;;;;;;9.87;4.23;;;;;;;20.60;87.29;97832.72;4153639;28;20676;-82
2023/07/02 06:07:39;;;;;;;7.67;4.17;;;;;;;20.53;88.14;97823.78;4151109;28;20638;-82
2023/07/02 06:09:42;;;;;;;6.03;4.47;;;;;;;20.44;88.08;97831.94;4150187;28;20652;-82
2023/07/02 06:11:45;;;;;;;6.23;3.60;;;;;;;20.33;87.98;97825.19;4140258;28;20741;-81
2023/07/02 06:13:49;;;;;;;5.07;3.40;;;;;;;20.22;86.10;97819.47;4154935;28;20680;-82
2023/07/02 06:15:52;;;;;;;9.27;4.33;;;;;;;20.22;86.43;97823.91;4157101;28;21184;-82
2023/07/02 06:17:56;;;;;;;6.17;4.37;;;;;;;20.33;86.44;97830.50;4157645;28;20641;-82
2023/07/02 06:20:00;;;;;;;8.50;4.40;;;;;;;20.38;86.06;97822.84;4137777;28;20641;-82
2023/07/02 06:22:04;;;;;;;5.40;3.70;;;;;;;20.44;86.88;97831.94;4156326;28;20629;-82
2023/07/02 06:24:07;;;;;;;6.70;4.70;;;;;;;20.47;86.86;97826.31;4156896;28;21666;-81
2023/07/02 06:26:10;;;;;;;7.00;4.60;;;;;;;20.57;88.17;97835.72;4153625;28;21301;-82
2023/07/02 06:28:13;;;;;;;6.97;4.23;;;;;;;20.68;86.29;97835.34;4154442;28;21194;-82
2023/07/02 06:30:17;;;;;;;8.23;5.30;;;;;;;20.66;84.93;97825.88;4151412;28;20660;-81
2023/07/02 06:32:20;;;;;;;7.10;4.80;;;;;;;20.65;85.56;97827.72;4153556;28;20671;-82
2023/07/02 06:34:25;;;;;;;8.20;5.53;;;;;;;20.69;85.22;97826.41;4151782;28;20626;-82
2023/07/02 06:36:28;;;;;;;9.57;4.83;;;;;;;20.67;86.52;97831.03;4136780;28;20646;-81
2023/07/02 06:38:32;;;;;;;8.20;4.60;;;;;;;20.70;85.84;97828.03;4150326;28;20644;-82
2023/07/02 06:40:35;;;;;;;8.17;5.00;;;;;;;20.69;84.83;97828.22;4141821;28;20657;-82
2023/07/02 06:42:38;;;;;;;10.50;6.50;;;;;;;20.63;82.87;97823.59;4154855;28;20717;-81
2023/07/02 06:44:42;;;;;;;11.03;5.60;;;;;;;20.67;83.06;97823.09;4154533;28;20630;-82
2023/07/02 06:46:46;;;;;;;11.90;6.50;;;;;;;20.77;82.80;97828.19;4158095;28;20732;-82
2023/07/02 06:48:50;;;;;;;9.80;6.13;;;;;;;20.69;81.96;97829.06;4155145;28;20633;-82
2023/07/02 06:50:57;;;;;;;8.00;5.00;;;;;;;20.64;80.90;97822.59;4144874;28;20726;-81
2023/07/02 06:53:00;;;;;;;8.50;5.33;;;;;;;20.93;80.13;97836.88;4149281;28;20661;-81
2023/07/02 06:55:04;;;;;;;9.40;5.77;;;;;;;21.43;80.33;97827.41;4166920;28;21506;-81
2023/07/02 06:57:07;;;;;;;9.27;5.90;;;;;;;21.65;78.73;97831.88;4148525;28;20634;-79
2023/07/02 06:59:11;;;;;;;10.53;5.40;;;;;;;22.01;77.72;97833.69;4149743;28;20701;-81
2023/07/02 07:01:14;;;;;;;9.33;5.87;;;;;;;22.26;75.83;97843.94;4149485;28;20671;-80
2023/07/02 07:03:18;;;;;;;10.17;5.60;;;;;;;22.43;76.89;97845.41;4154782;28;20634;-80
2023/07/02 07:05:21;;;;;;;12.37;6.70;;;;;;;22.68;75.90;97846.78;4152955;28;20689;-80
2023/07/02 07:07:26;;;;;;;11.27;6.60;;;;;;;22.88;76.54;97849.50;4153847;28;21338;-80
2023/07/02 07:09:29;;;;;;;9.90;6.00;;;;;;;23.06;74.21;97854.41;4154994;28;20638;-80
2023/07/02 07:11:32;;;;;;;10.07;6.43;;;;;;;23.24;72.77;97852.97;4148740;28;20642;-80
2023/07/02 07:13:35;;;;;;;9.33;5.27;;;;;;;23.23;72.95;97854.03;4153913;28;20646;-80
2023/07/02 07:15:39;;;;;;;10.33;4.90;;;;;;;23.35;72.50;97850.66;4156331;28;21035;-80
2023/07/02 07:17:42;;;;;;;9.07;5.60;;;;;;;23.61;72.71;97853.56;4152753;28;21346;-80
2023/07/02 07:19:45;;;;;;;9.57;5.73;;;;;;;23.57;69.80;97841.63;4142392;28;21005;-80
2023/07/02 07:21:48;;;;;;;13.50;6.07;;;;;;;23.77;69.91;97843.50;4156708;28;21071;-79
2023/07/02 07:23:53;;;;;;;9.67;5.67;;;;;;;24.03;72.62;97850.91;4153428;28;20638;-80
2023/07/02 07:25:56;;;;;;;9.33;6.30;;;;;;;24.09;67.69;97836.78;4143210;28;20732;-81
2023/07/02 07:28:00;;;;;;;8.83;5.80;;;;;;;24.31;68.79;97849.84;4156525;28;20675;-80
2023/07/02 07:30:04;;;;;;;8.93;5.50;;;;;;;24.29;67.58;97846.56;4140661;28;20660;-80
2023/07/02 07:32:08;;;;;;;11.10;5.77;;;;;;;24.19;67.62;97835.41;4152487;28;20652;-81
2023/07/02 07:34:11;;;;;;;9.53;5.33;;;;;;;24.14;67.31;97837.03;4156063;28;20629;-79
2023/07/02 07:36:15;;;;;;;9.00;5.50;;;;;;;24.23;68.09;97845.47;4154304;28;21061;-81
2023/07/02 07:38:18;;;;;;;8.50;5.70;;;;;;;24.34;68.45;97844.16;4134639;28;20644;-81
2023/07/02 07:40:22;;;;;;;10.63;5.90;;;;;;;24.47;64.52;97849.56;4128887;28;20727;-82
2023/07/02 07:42:25;;;;;;;12.93;5.50;;;;;;;24.46;64.82;97838.09;4149404;28;21042;-81
2023/07/02 07:44:29;;;;;;;8.90;6.20;;;;;;;24.63;65.45;97845.56;4148902;28;21018;-82
2023/07/02 07:46:32;;;;;;;9.97;5.63;;;;;;;24.84;64.79;97847.31;4156378;28;20742;-82
2023/07/02 07:48:36;;;;;;;8.80;6.03;;;;;;;25.00;64.90;97852.31;4158276;28;21262;-81
2023/07/02 07:50:39;;;;;;;9.97;6.27;;;;;;;25.10;63.92;97852.78;4160594;28;20987;-82
2023/07/02 07:52:43;;;;;;;11.37;6.70;;;;;;;25.06;63.57;97852.34;4159656;28;20653;-82
2023/07/02 07:54:46;;;;;;;9.83;6.10;;;;;;;25.23;66.33;97848.31;4145215;28;20672;-80
2023/07/02 07:56:51;;;;;;;9.53;6.00;;;;;;;25.36;63.16;97853.66;4159161;28;20656;-81
2023/07/02 07:58:54;;;;;;;8.90;6.33;;;;;;;25.57;64.20;97854.31;4157331;28;20733;-82
2023/07/02 08:00:57;;;;;;;10.90;6.23;;;;;;;25.66;63.39;97845.94;4152198;28;20657;-82
2023/07/02 08:03:02;;;;;;;10.00;6.40;;;;;;;25.62;63.29;97849.22;4153300;28;20641;-83
2023/07/02 08:05:06;;;;;;;10.50;6.10;;;;;;;25.67;63.60;97850.25;4155436;28;21184;-83
2023/07/02 08:07:09;;;;;;;9.83;6.30;;;;;;;25.78;62.51;97843.47;4160668;28;20643;-82
2023/07/02 08:09:12;;;;;;;10.10;6.50;;;;;;;25.83;62.76;97849.88;4144209;28;21247;-84
2023/07/02 08:11:15;;;;;;;14.70;8.07;;;;;;;26.00;62.74;97842.25;4154924;28;20648;-85
2023/07/02 08:13:20;;;;;;;9.57;6.50;;;;;;;25.95;61.85;97836.69;4154552;28;20650;-87
2023/07/02 08:15:23;;;;;;;9.30;6.30;;;;;;;25.84;62.31;97839.97;4150828;28;21052;-83
2023/07/02 08:17:26;;;;;;;11.63;7.43;;;;;;;25.90;63.36;97837.31;4149864;28;21461;-83
2023/07/02 08:19:30;;;;;;;12.90;7.33;;;;;;;26.09;61.44;97841.84;4151181;28;20742;-83
2023/07/02 08:21:33;;;;;;;9.87;7.30;;;;;;;26.08;60.57;97840.19;4139378;28;20782;-85
2023/07/02 08:23:37;;;;;;;10.20;6.97;;;;;;;26.23;60.70;97838.91;4156764;28;20645;-84
2023/07/02 08:25:40;;;;;;;9.10;6.47;;;;;;;26.35;61.07;97848.00;4153079;28;20655;-81
2023/07/02 08:27:43;;;;;;;8.97;7.00;;;;;;;25.96;59.71;97835.66;4147231;28;20662;-82
2023/07/02 08:29:48;;;;;;;12.03;8.37;;;;;;;25.74;62.42;97831.53;4139921;28;20640;-84
2023/07/02 08:31:52;;;;;;;15.43;8.37;;;;;;;25.51;59.75;97833.75;4152098;28;20619;-80
2023/07/02 08:33:55;;;;;;;11.03;7.87;;;;;;;25.40;61.73;97834.34;4154616;28;20642;-84
2023/07/02 08:36:00;;;;;;;11.47;8.07;;;;;;;25.48;61.29;97828.81;4155010;28;20671;-82
2023/07/02 08:38:05;;;;;;;12.13;7.40;;;;;;;25.51;61.10;97831.06;4143945;28;20625;-81
2023/07/02 08:40:16;;;;;;;12.27;7.43;;;;;;;25.39;62.14;97834.56;4140607;28;20648;-81
2023/07/02 08:42:20;;;;;;;14.17;8.50;;;;;;;25.30;60.34;97833.94;4153582;28;20640;-80
2023/07/02 08:44:23;;;;;;;12.40;8.33;;;;;;;25.17;60.64;97833.91;4131587;28;20647;-85
2023/07/02 08:46:28;;;;;;;11.75;7.25;;;;;;;25.06;61.89;97825.63;4151607;28;21470;-81
2023/07/02 08:48:31;;;;;;;11.43;7.33;;;;;;;25.20;61.29;97825.47;4158012;28;21088;-83
2023/07/02 08:50:34;;;;;;;11.30;7.37;;;;;;;25.30;61.58;97817.06;4150782;28;21218;-80
2023/07/02 08:52:38;;;;;;;13.23;7.87;;;;;;;25.44;61.58;97827.59;4145786;28;20744;-84
2023/07/02 08:54:42;;;;;;;14.23;7.73;;;;;;;25.35;61.11;97826.13;4150766;28;20696;-84
2023/07/02 08:56:45;;;;;;;12.50;7.43;;;;;;;25.27;60.52;97823.66;4149724;28;20640;-83
2023/07/02 08:58:48;;;;;;;12.43;8.37;;;;;;;25.19;60.57;97826.50;4152937;28;20648;-82
2023/07/02 09:01:07;;;;;;;11.83;7.40;;;;;;;25.41;59.11;97819.97;4146224;28;21024;-81
2023/07/02 09:03:16;;;;;;;12.53;8.33;;;;;;;25.60;59.08;97829.84;4155231;28;20687;-80
2023/07/02 09:05:20;;;;;;;15.10;8.83;;;;;;;25.81;59.21;97824.34;4157508;28;20683;-80
2023/07/02 09:07:23;;;;;;;14.63;8.63;;;;;;;26.01;60.23;97830.50;4156304;28;20644;-85
2023/07/02 09:09:27;;;;;;;15.20;8.27;;;;;;;26.16;58.39;97831.94;4139674;28;20645;-79
2023/07/02 09:11:31;;;;;;;13.83;9.60;;;;;;;26.16;58.71;97829.25;4095793;28;21145;-82
2023/07/02 09:13:43;;;;;;;16.93;9.10;;;;;;;26.27;58.15;97834.84;4145170;28;20671;-80
2023/07/02 09:15:47;;;;;;;14.97;9.80;;;;;;;26.33;57.67;97828.66;4154641;28;20635;-80
2023/07/02 09:17:51;;;;;;;15.17;9.53;;;;;;;26.33;57.75;97833.19;4138999;28;20688;-82
2023/07/02 09:19:55;;;;;;;16.30;10.03;;;;;;;26.29;58.38;97831.97;4153686;28;20642;-85
2023/07/02 09:22:00;;;;;;;14.57;8.93;;;;;;;26.34;59.64;97824.97;4129607;28;20640;-82
2023/07/02 09:24:13;;;;;;;15.40;8.63;;;;;;;26.31;57.40;97825.38;4148077;28;20652;-79
2023/07/02 09:26:20;;;;;;;13.87;9.17;;;;;;;26.18;58.50;97825.34;4148422;28;21085;-78
2023/07/02 09:28:24;;;;;;;14.90;10.07;;;;;;;26.18;58.31;97828.03;4120131;28;21633;-79
2023/07/02 09:30:28;;;;;;;14.43;8.57;;;;;;;26.30;56.84;97834.44;4137077;28;20632;-79
2023/07/02 09:32:32;;;;;;;17.13;9.90;;;;;;;26.24;57.69;97829.88;4150261;28;20735;-80
2023/07/02 09:34:36;;;;;;;14.07;9.63;;;;;;;26.07;56.84;97824.34;4148535;28;20678;-80
2023/07/02 09:36:42;;;;;;;12.27;7.93;;;;;;;25.78;56.68;97822.09;4137243;28;20743;-80
2023/07/02 09:38:45;;;;;;;16.20;10.00;;;;;;;25.85;57.80;97833.63;4146361;28;20980;-80
2023/07/02 09:40:52;;;;;;;15.10;8.80;;;;;;;26.04;58.73;97822.91;4148666;28;20629;-81